createdAt,value
2022-10-28T00:04:53.370Z,0
2022-10-28T00:09:53.494Z,0
2022-10-28T00:14:53.449Z,0
2022-10-28T00:22:16.787Z,0
2022-10-28T00:29:53.767Z,0
2022-10-28T00:35:01.068Z,0
2022-10-28T00:39:53.818Z,0
2022-10-28T00:44:53.903Z,0
2022-10-28T00:49:53.388Z,0
2022-10-28T00:54:53.421Z,0
2022-10-28T00:59:54.795Z,0
2022-10-28T01:04:53.501Z,0
2022-10-28T01:09:53.425Z,0
2022-10-28T01:14:53.431Z,0
2022-10-28T01:19:53.389Z,0
2022-10-28T01:24:53.417Z,0
2022-10-28T01:29:53.429Z,0
2022-10-28T01:34:53.398Z,0
2022-10-28T01:39:53.405Z,0
2022-10-28T01:44:53.378Z,0
2022-10-28T01:49:53.373Z,0
2022-10-28T01:54:55.641Z,0
2022-10-28T01:59:53.721Z,0
2022-10-28T02:04:53.476Z,0
2022-10-28T02:09:53.458Z,0
2022-10-28T02:14:53.405Z,0
2022-10-28T02:19:53.375Z,0
2022-10-28T02:24:53.408Z,0
2022-10-28T02:29:53.453Z,0
2022-10-28T02:34:53.376Z,0
2022-10-28T02:39:53.415Z,0
2022-10-28T02:44:53.406Z,0
2022-10-28T02:49:53.418Z,0
2022-10-28T02:54:53.431Z,0
2022-10-28T02:59:56.653Z,0
2022-10-28T03:04:53.602Z,0
2022-10-28T03:09:53.396Z,0
2022-10-28T03:14:53.409Z,0
2022-10-28T03:19:53.431Z,0
2022-10-28T03:24:53.436Z,0
2022-10-28T03:29:53.420Z,0
2022-10-28T03:34:53.404Z,0
2022-10-28T03:39:53.399Z,0
2022-10-28T03:44:53.444Z,0
2022-10-28T03:49:53.450Z,0
2022-10-28T03:54:53.460Z,0
2022-10-28T03:59:53.651Z,0
2022-10-28T04:04:53.473Z,0
2022-10-28T04:09:53.424Z,0
2022-10-28T04:14:53.425Z,0
2022-10-28T04:19:53.526Z,0
2022-10-28T04:24:53.595Z,0
2022-10-28T04:29:53.456Z,0
2022-10-28T04:34:53.453Z,0
2022-10-28T04:39:53.466Z,0
2022-10-28T04:44:53.512Z,0
2022-10-28T04:49:53.528Z,0
2022-10-28T04:54:53.491Z,0
2022-10-28T04:59:54.001Z,0
2022-10-28T05:04:53.531Z,0
2022-10-28T05:09:53.495Z,0
2022-10-28T05:14:53.523Z,0
2022-10-28T05:19:53.445Z,0
2022-10-28T05:24:53.431Z,0
2022-10-28T05:29:53.460Z,0
2022-10-28T05:34:53.535Z,256
2022-10-28T05:39:53.462Z,256
2022-10-28T05:44:53.509Z,258
2022-10-28T05:49:53.420Z,265
2022-10-28T05:54:53.449Z,267
2022-10-28T05:59:53.913Z,271
2022-10-28T06:04:53.489Z,270
2022-10-28T06:09:53.499Z,274
2022-10-28T06:14:51.943Z,282
2022-10-28T06:19:51.937Z,288
2022-10-28T06:24:51.955Z,295
2022-10-28T06:29:51.987Z,296
2022-10-28T06:34:51.956Z,289
2022-10-28T06:39:51.974Z,287
2022-10-28T06:44:52.013Z,278
2022-10-28T06:49:53.469Z,277
2022-10-28T06:54:53.635Z,282
2022-10-28T07:00:05.636Z,293
2022-10-28T07:04:53.477Z,320
2022-10-28T07:09:53.534Z,324
2022-10-28T07:14:53.546Z,324
2022-10-28T07:19:53.501Z,330
2022-10-28T07:24:53.565Z,376
2022-10-28T07:29:53.516Z,435
2022-10-28T07:34:53.524Z,457
2022-10-28T07:39:53.532Z,496
2022-10-28T07:44:53.553Z,633
2022-10-28T07:49:53.483Z,769
2022-10-28T07:54:53.552Z,735
2022-10-28T07:59:53.924Z,770
2022-10-28T08:04:53.620Z,1458
2022-10-28T08:09:53.524Z,11270
2022-10-28T08:14:53.550Z,10813
2022-10-28T08:19:53.459Z,7377
2022-10-28T08:24:53.529Z,5161
2022-10-28T08:29:53.486Z,2749
2022-10-28T08:34:53.485Z,2404
2022-10-28T08:39:53.526Z,1499
2022-10-28T08:44:53.532Z,1870
2022-10-28T08:49:53.518Z,2325
2022-10-28T08:54:53.505Z,2469
2022-10-28T08:59:54.214Z,4604
2022-10-28T09:04:53.616Z,13248
2022-10-28T09:09:53.622Z,12837
2022-10-28T09:14:53.510Z,13018
2022-10-28T09:19:53.474Z,13192
2022-10-28T09:24:53.526Z,8103
2022-10-28T09:29:53.560Z,12089
2022-10-28T09:34:53.594Z,1705
2022-10-28T09:39:53.864Z,1630
2022-10-28T09:44:53.518Z,1586
2022-10-28T09:49:54.858Z,1421
2022-10-28T09:54:53.532Z,1261
2022-10-28T09:59:53.632Z,1094
2022-10-28T10:04:53.547Z,1026
2022-10-28T10:09:53.529Z,995
2022-10-28T10:14:53.521Z,981
2022-10-28T10:19:53.501Z,965
2022-10-28T10:24:53.700Z,967
2022-10-28T10:29:53.541Z,1043
2022-10-28T10:34:53.636Z,1064
2022-10-28T10:39:53.636Z,1113
2022-10-28T10:44:53.680Z,1033
2022-10-28T10:49:53.674Z,1161
2022-10-28T10:54:53.485Z,1171
2022-10-28T11:10:13.983Z,1599
2022-10-28T11:14:53.506Z,1496
2022-10-28T11:19:53.545Z,1510
2022-10-28T11:24:53.510Z,1425
2022-10-28T11:29:53.529Z,1482
2022-10-28T11:34:53.529Z,1397
2022-10-28T11:39:53.577Z,1460
2022-10-28T11:45:04.124Z,1492
2022-10-28T11:49:53.660Z,1595
2022-10-28T11:55:05.674Z,1357
2022-10-28T12:00:18.189Z,1082
2022-10-28T12:05:04.539Z,907
2022-10-28T12:20:58.834Z,776
2022-10-28T12:25:21.699Z,712
2022-10-28T12:29:55.233Z,766
2022-10-28T12:35:10.839Z,740
2022-10-28T12:39:54.669Z,870
2022-10-28T12:44:53.752Z,802
2022-10-28T12:49:53.512Z,638
2022-10-28T12:54:53.719Z,540
2022-10-28T12:59:53.525Z,517
2022-10-28T13:04:53.586Z,463
2022-10-28T13:09:53.855Z,556
2022-10-28T13:14:53.592Z,601
2022-10-28T13:19:53.541Z,622
2022-10-28T13:24:53.585Z,619
2022-10-28T13:29:54.160Z,705
2022-10-28T13:40:34.100Z,657
2022-10-28T13:44:53.628Z,655
2022-10-28T13:49:53.536Z,681
2022-10-28T13:54:53.599Z,643
2022-10-28T13:59:53.625Z,584
2022-10-28T14:04:53.529Z,502
2022-10-28T16:20:18.172Z,0
2022-10-28T16:25:33.153Z,0
2022-10-28T16:30:16.005Z,0
2022-10-28T16:35:19.747Z,0
2022-10-28T16:40:52.420Z,0
2022-10-28T16:45:15.967Z,0
2022-10-28T16:50:15.852Z,0
2022-10-28T16:55:15.911Z,0
2022-10-28T17:00:15.909Z,0
2022-10-28T17:05:15.993Z,0
2022-10-28T17:10:15.919Z,0
2022-10-28T17:15:15.881Z,0
2022-10-28T17:20:16.027Z,0
2022-10-28T17:25:15.912Z,0
2022-10-28T17:30:15.932Z,0
2022-10-28T17:35:15.886Z,0
2022-10-28T17:40:15.922Z,0
2022-10-28T17:45:17.881Z,0
2022-10-28T17:50:17.045Z,0
2022-10-28T17:55:15.909Z,0
2022-10-28T18:00:15.995Z,0
2022-10-28T18:05:15.907Z,0
2022-10-28T18:10:15.966Z,0
2022-10-28T18:15:15.992Z,0
2022-10-28T18:20:16.007Z,0
2022-10-28T18:25:15.903Z,0
2022-10-28T18:30:15.963Z,0
2022-10-28T18:35:15.947Z,0
2022-10-28T18:40:15.962Z,0
2022-10-28T18:45:15.952Z,0
2022-10-28T18:50:15.933Z,0
2022-10-28T18:55:16.011Z,0
2022-10-28T19:00:18.965Z,0
2022-10-28T19:05:15.908Z,0
2022-10-28T19:10:15.986Z,0
2022-10-28T19:15:15.965Z,0
2022-10-28T19:20:16.006Z,0
2022-10-28T19:25:15.920Z,0
2022-10-28T19:30:15.993Z,0
2022-10-28T19:35:15.932Z,0
2022-10-28T19:40:16.603Z,0
2022-10-28T19:45:15.917Z,0
2022-10-28T19:50:15.924Z,0
2022-10-28T19:55:15.921Z,0
2022-10-28T20:00:15.922Z,0
2022-10-28T20:05:15.921Z,0
2022-10-28T20:10:15.915Z,0
2022-10-28T20:15:16.129Z,0
2022-10-28T20:20:16.135Z,0
2022-10-28T20:25:16.034Z,0
2022-10-28T20:30:15.893Z,0
2022-10-28T20:35:16.001Z,0
2022-10-28T20:40:15.924Z,0
2022-10-28T20:45:15.975Z,0
2022-10-28T20:50:15.992Z,0
2022-10-28T20:55:15.964Z,0
2022-10-28T21:00:15.973Z,0
2022-10-28T21:05:15.931Z,0
2022-10-28T21:10:16.040Z,0
2022-10-28T21:15:15.913Z,0
2022-10-28T21:20:16.051Z,0
2022-10-28T21:25:15.950Z,0
2022-10-28T21:30:15.991Z,0
2022-10-28T21:35:15.916Z,0
2022-10-28T21:40:15.995Z,0
2022-10-28T21:45:15.959Z,0
2022-10-28T21:50:15.949Z,0
2022-10-28T21:55:20.896Z,0
2022-10-28T22:00:16.993Z,0
2022-10-28T22:05:15.961Z,0
2022-10-28T22:10:15.979Z,0
2022-10-28T22:15:16.038Z,0
2022-10-28T22:20:16.046Z,0
2022-10-28T22:25:15.943Z,0
2022-10-28T22:30:16.036Z,0
2022-10-28T22:35:15.957Z,0
2022-10-28T22:40:15.953Z,0
2022-10-28T22:45:15.998Z,0
2022-10-28T22:50:15.998Z,0
2022-10-28T22:55:15.961Z,0
2022-10-28T23:00:16.162Z,0
2022-10-28T23:05:15.973Z,0
2022-10-28T23:10:16.071Z,0
2022-10-28T23:15:16.003Z,0
2022-10-28T23:20:16.113Z,0
2022-10-28T23:25:15.977Z,0
2022-10-28T23:30:16.007Z,0
2022-10-28T23:35:16.013Z,0
2022-10-28T23:40:15.977Z,0
2022-10-28T23:45:15.986Z,0
2022-10-28T23:50:16.046Z,0
2022-10-28T23:55:15.940Z,0
